Time;durP1;ratioP1;P1;durP2;ratioP2;P2;SDS_P1;SDS_P2;PMS_P1;PMS_P2;Temp;Humidity;BMP_temperature;BMP_pressure;BME280_temperature;BME280_humidity;BME280_pressure;Samples;Min_cycle;Max_cycle;Signal;HPM_P1;HPM_P2
2022/05/03 00:01:40;;;;;;;1.93;1.37;;;15.30;99.90;;;;;;5076086;28;20474;-82
2022/05/03 00:04:13;;;;;;;0.70;0.60;;;15.20;99.90;;;;;;5072512;28;20459;-82
2022/05/03 00:06:48;;;;;;;0.70;0.30;;;15.20;99.90;;;;;;5073906;28;20652;-82
2022/05/03 00:09:26;;;;;;;0.73;0.70;;;15.20;99.90;;;;;;5071858;28;20446;-83
2022/05/03 00:12:00;;;;;;;0.60;0.30;;;15.20;99.90;;;;;;5072048;28;20529;-83
2022/05/03 00:14:33;;;;;;;1.20;1.10;;;15.20;99.90;;;;;;5072253;28;20466;-83
2022/05/03 00:17:01;;;;;;;1.90;1.80;;;;;;;;;;5069494;28;20437;-83
2022/05/03 00:19:30;;;;;;;0.60;0.20;;;15.10;99.90;;;;;;5076409;28;20434;-82
2022/05/03 00:22:00;;;;;;;1.00;0.80;;;15.10;99.90;;;;;;5076541;28;20511;-83
2022/05/03 00:24:30;;;;;;;1.83;1.13;;;15.00;99.90;;;;;;5076730;28;20458;-82
2022/05/03 00:26:58;;;;;;;1.20;0.57;;;;;;;;;;5076812;28;20485;-83
2022/05/03 00:29:29;;;;;;;0.60;0.20;;;15.10;99.90;;;;;;5089126;28;20450;-82
2022/05/03 00:31:58;;;;;;;0.80;0.53;;;15.00;99.90;;;;;;5092213;28;20481;-82
2022/05/03 00:34:27;;;;;;;1.17;0.30;;;15.00;99.90;;;;;;5094026;28;20463;-82
2022/05/03 00:36:55;;;;;;;0.83;0.77;;;15.00;99.90;;;;;;5095135;28;20430;-82
2022/05/03 00:39:23;;;;;;;0.67;0.30;;;15.00;99.90;;;;;;5076543;28;20458;-83
2022/05/03 00:42:01;;;;;;;0.70;0.37;;;15.00;99.90;;;;;;5076018;28;20497;-82
2022/05/03 00:44:56;;;;;;;1.10;0.80;;;15.00;99.90;;;;;;5078313;28;20436;-82
2022/05/03 00:47:35;;;;;;;2.60;1.47;;;15.00;99.90;;;;;;5094843;28;20438;-82
2022/05/03 00:50:06;;;;;;;1.10;0.97;;;14.90;99.90;;;;;;5096079;28;20442;-83
2022/05/03 00:52:44;;;;;;;0.90;0.30;;;14.90;99.90;;;;;;5093078;28;20533;-82
2022/05/03 00:55:31;;;;;;;2.47;2.27;;;14.90;99.90;;;;;;5093748;28;20431;-83
2022/05/03 00:58:23;;;;;;;0.60;0.20;;;14.80;1.00;;;;;;5095349;28;20451;-81
2022/05/03 01:01:01;;;;;;;3.30;2.77;;;14.80;1.00;;;;;;5091288;28;20478;-83
2022/05/03 01:03:39;;;;;;;2.40;1.50;;;14.80;1.00;;;;;;5089018;28;20441;-83
2022/05/03 01:06:22;;;;;;;1.63;1.03;;;14.80;1.00;;;;;;5095740;28;20414;-83
2022/05/03 01:09:04;;;;;;;0.60;0.10;;;14.80;1.00;;;;;;5088326;28;20527;-83
2022/05/03 01:11:42;;;;;;;3.37;2.53;;;14.60;1.00;;;;;;5054771;28;20466;-82
2022/05/03 01:14:27;;;;;;;2.57;2.20;;;14.60;1.00;;;;;;5058842;28;20463;-82
2022/05/03 01:17:00;;;;;;;0.60;0.20;;;14.60;1.00;;;;;;5079676;28;20456;-82
2022/05/03 01:19:41;;;;;;;1.63;0.90;;;14.60;1.00;;;;;;5080061;28;20490;-83
2022/05/03 01:22:16;;;;;;;0.90;0.53;;;14.60;1.00;;;;;;5080047;28;20501;-83
2022/05/03 01:25:02;;;;;;;0.70;0.47;;;14.60;1.00;;;;;;5098356;28;20449;-84
2022/05/03 01:27:52;;;;;;;1.03;0.93;;;14.50;1.00;;;;;;5100038;28;20437;-83
2022/05/03 01:30:22;;;;;;;0.80;0.70;;;14.50;1.00;;;;;;5099698;28;20430;-84
2022/05/03 01:32:53;;;;;;;0.60;0.20;;;14.40;1.00;;;;;;5096588;28;20450;-83
2022/05/03 01:35:24;;;;;;;2.60;1.80;;;14.40;1.00;;;;;;5075531;28;20454;-83
2022/05/03 01:38:11;;;;;;;2.20;2.10;;;14.40;1.00;;;;;;5076613;28;20475;-84
2022/05/03 01:40:54;;;;;;;0.80;0.50;;;14.30;1.00;;;;;;5074695;28;20445;-82
2022/05/03 01:43:40;;;;;;;0.73;0.57;;;14.30;1.00;;;;;;5076583;28;20449;-83
2022/05/03 01:46:16;;;;;;;1.87;1.53;;;14.30;1.00;;;;;;5078945;28;20459;-83
2022/05/03 01:51:54;;;;;;;0.60;0.30;;;14.40;1.00;;;;;;5079447;28;20493;-83
2022/05/03 01:54:41;;;;;;;1.40;1.30;;;14.30;1.00;;;;;;5079215;28;20482;-83
2022/05/03 01:57:18;;;;;;;3.27;0.77;;;14.30;1.00;;;;;;5079135;28;20511;-83
2022/05/03 01:59:56;;;;;;;0.90;0.67;;;14.30;1.00;;;;;;5079329;28;20463;-83
2022/05/03 02:02:36;;;;;;;0.80;0.50;;;14.30;1.00;;;;;;5078293;28;20487;-82
2022/05/03 02:05:07;;;;;;;0.70;0.50;;;15.70;1.00;;;;;;5079714;28;20446;-83
2022/05/03 02:07:52;;;;;;;2.30;1.30;;;14.20;1.00;;;;;;5078574;28;20434;-83
2022/05/03 02:10:24;;;;;;;0.60;0.20;;;;;;;;;;5078218;28;20461;-83
2022/05/03 02:12:56;;;;;;;0.80;0.30;;;14.20;1.00;;;;;;5077553;28;20447;-82
2022/05/03 02:15:38;;;;;;;0.80;0.40;;;14.20;1.00;;;;;;5076630;28;20456;-83
2022/05/03 02:18:15;;;;;;;0.60;0.20;;;14.20;1.00;;;;;;5091395;28;20457;-84
2022/05/03 02:21:03;;;;;;;0.70;0.20;;;14.20;1.00;;;;;;5096963;28;20472;-83
2022/05/03 02:23:51;;;;;;;0.97;0.80;;;14.20;1.00;;;;;;5093692;28;20465;-82
2022/05/03 02:26:29;;;;;;;0.60;0.33;;;14.20;1.00;;;;;;5076196;28;20979;-82
2022/05/03 02:29:04;;;;;;;1.77;0.67;;;14.20;1.00;;;;;;5077643;28;20446;-83
2022/05/03 02:31:40;;;;;;;0.70;0.30;;;14.10;1.00;;;;;;5073581;28;20493;-83
2022/05/03 02:34:19;;;;;;;1.13;1.03;;;14.10;1.00;;;;;;5073055;28;20439;-83
2022/05/03 02:36:56;;;;;;;0.60;0.10;;;14.10;1.00;;;;;;5075249;28;20435;-84
2022/05/03 02:39:28;;;;;;;1.00;0.63;;;14.10;1.00;;;;;;5079107;28;20443;-84
2022/05/03 02:41:59;;;;;;;2.20;0.93;;;14.10;1.00;;;;;;5078596;28;20486;-83
2022/05/03 02:44:29;;;;;;;0.87;0.87;;;;;;;;;;5078327;28;20474;-82
2022/05/03 02:47:04;;;;;;;1.77;0.90;;;14.00;1.00;;;;;;5078316;28;20485;-83
2022/05/03 02:49:46;;;;;;;0.73;0.63;;;14.00;1.00;;;;;;5078123;28;20523;-83
2022/05/03 02:52:24;;;;;;;0.60;0.10;;;14.00;1.00;;;;;;5078206;28;20475;-83
2022/05/03 02:55:04;;;;;;;3.67;2.87;;;14.00;1.00;;;;;;5078031;28;20458;-83
2022/05/03 02:57:45;;;;;;;1.47;0.50;;;14.00;1.00;;;;;;5081062;28;20445;-82
2022/05/03 03:03:25;;;;;;;2.30;0.43;;;14.00;1.00;;;;;;5089095;28;20485;-84
2022/05/03 03:06:00;;;;;;;2.63;2.43;;;14.00;1.00;;;;;;5078078;28;20446;-81
2022/05/03 03:08:32;;;;;;;1.53;1.43;;;14.90;1.00;;;;;;5074921;28;20454;-84
2022/05/03 03:11:04;;;;;;;0.60;0.27;;;13.90;1.00;;;;;;5079400;28;20473;-83
2022/05/03 03:13:49;;;;;;;0.70;0.50;;;14.00;1.00;;;;;;5088632;28;20437;-83
2022/05/03 03:16:23;;;;;;;0.70;0.37;;;13.90;1.00;;;;;;5085859;28;20422;-83
2022/05/03 03:18:58;;;;;;;0.60;0.30;;;13.90;1.00;;;;;;5088084;28;20454;-80
2022/05/03 03:21:32;;;;;;;1.53;0.93;;;14.00;1.00;;;;;;5069693;28;20664;-81
2022/05/03 03:24:01;;;;;;;1.93;1.20;;;13.90;1.00;;;;;;5070742;28;20503;-81
2022/05/03 03:26:31;;;;;;;0.70;0.37;;;13.90;1.00;;;;;;5065577;28;20456;-82
2022/05/03 03:29:00;;;;;;;0.77;0.50;;;13.90;1.00;;;;;;5064637;28;20462;-83
2022/05/03 03:31:31;;;;;;;0.80;0.60;;;13.90;1.00;;;;;;5066217;28;20467;-84
2022/05/03 03:34:01;;;;;;;3.33;1.50;;;13.90;1.00;;;;;;5073009;28;20491;-83
2022/05/03 03:36:32;;;;;;;4.40;2.40;;;13.90;1.00;;;;;;5070959;28;20510;-82
2022/05/03 03:39:00;;;;;;;0.60;0.30;;;;;;;;;;5065107;28;20442;-82
2022/05/03 03:41:30;;;;;;;1.00;0.30;;;13.80;1.00;;;;;;5063720;28;21009;-83
2022/05/03 03:43:58;;;;;;;0.90;0.53;;;;;;;;;;5065007;28;20475;-83
2022/05/03 03:46:27;;;;;;;1.60;1.20;;;13.80;1.00;;;;;;5067554;28;20450;-83
2022/05/03 03:48:55;;;;;;;1.43;1.33;;;13.80;1.00;;;;;;5064759;28;20445;-83
2022/05/03 03:51:23;;;;;;;1.77;0.57;;;13.80;1.00;;;;;;5067992;28;20473;-83
2022/05/03 03:53:54;;;;;;;1.13;1.03;;;13.80;1.00;;;;;;5076358;28;20442;-83
2022/05/03 03:56:22;;;;;;;0.60;0.10;;;;;;;;;;5076794;28;20466;-83
2022/05/03 03:58:50;;;;;;;1.17;0.60;;;13.80;1.00;;;;;;5069696;28;20438;-83
2022/05/03 04:01:19;;;;;;;0.70;0.40;;;13.80;1.00;;;;;;5076366;28;20459;-83
2022/05/03 04:03:48;;;;;;;1.80;1.70;;;13.80;1.00;;;;;;5075869;28;20507;-83
2022/05/03 04:06:16;;;;;;;1.00;0.80;;;;;;;;;;5071979;28;20452;-83
2022/05/03 04:08:44;;;;;;;1.53;1.43;;;13.70;1.00;;;;;;5071074;28;20496;-84
2022/05/03 04:11:17;;;;;;;0.90;0.40;;;13.80;1.00;;;;;;5071275;28;20530;-83
2022/05/03 04:13:46;;;;;;;0.60;0.10;;;13.80;1.00;;;;;;5073135;28;20513;-83
2022/05/03 04:16:14;;;;;;;0.60;0.30;;;13.80;1.00;;;;;;5051476;28;20429;-83
2022/05/03 04:18:45;;;;;;;3.03;0.77;;;13.80;1.00;;;;;;5051318;28;20983;-83
2022/05/03 04:21:15;;;;;;;0.60;0.30;;;13.80;1.00;;;;;;5064674;28;20496;-83
2022/05/03 04:23:43;;;;;;;7.83;3.40;;;13.80;1.00;;;;;;5065648;28;20571;-83
2022/05/03 04:26:11;;;;;;;1.67;1.57;;;13.80;1.00;;;;;;5063782;28;20438;-83
2022/05/03 04:28:40;;;;;;;0.60;0.20;;;13.80;1.00;;;;;;5065840;28;20448;-83
2022/05/03 04:31:08;;;;;;;0.60;0.20;;;13.80;1.00;;;;;;5064310;28;20479;-82
2022/05/03 04:33:37;;;;;;;0.90;0.80;;;13.80;1.00;;;;;;5062999;28;20514;-83
2022/05/03 04:36:06;;;;;;;0.70;0.57;;;13.80;1.00;;;;;;5061723;28;20516;-84
2022/05/03 04:38:34;;;;;;;0.60;0.10;;;;;;;;;;5060705;28;20471;-82
2022/05/03 04:41:03;;;;;;;0.93;0.93;;;13.70;1.00;;;;;;5061074;28;20925;-82
2022/05/03 04:43:31;;;;;;;0.60;0.10;;;13.70;1.00;;;;;;5062329;28;20480;-82
2022/05/03 04:46:01;;;;;;;1.87;0.77;;;13.80;1.00;;;;;;5062392;28;20436;-82
2022/05/03 04:48:29;;;;;;;0.70;0.40;;;13.80;1.00;;;;;;5061346;28;20449;-82
2022/05/03 04:50:57;;;;;;;3.33;3.13;;;13.70;1.00;;;;;;5061834;28;20503;-82
2022/05/03 04:53:25;;;;;;;0.60;0.10;;;13.70;1.00;;;;;;5066619;28;20485;-81
2022/05/03 04:55:53;;;;;;;0.60;0.10;;;13.70;1.00;;;;;;5082230;28;20451;-82
2022/05/03 04:58:22;;;;;;;0.60;0.40;;;;;;;;;;5087700;28;20483;-84
2022/05/03 05:00:50;;;;;;;0.70;0.33;;;13.80;1.00;;;;;;5085830;28;20973;-82
2022/05/03 05:03:19;;;;;;;0.90;0.57;;;13.80;1.00;;;;;;5086266;28;20474;-82
2022/05/03 05:05:47;;;;;;;1.03;0.83;;;13.80;1.00;;;;;;5090845;28;20439;-83
2022/05/03 05:08:15;;;;;;;2.20;2.10;;;13.80;1.00;;;;;;5087573;28;20457;-84
2022/05/03 05:10:43;;;;;;;0.70;0.30;;;13.80;1.00;;;;;;5072640;28;20590;-84
2022/05/03 05:13:11;;;;;;;0.60;0.27;;;13.80;1.00;;;;;;5072078;28;20445;-82
2022/05/03 05:15:39;;;;;;;4.70;2.33;;;13.80;1.00;;;;;;5068418;28;20496;-79
2022/05/03 05:18:08;;;;;;;1.20;1.00;;;13.80;1.00;;;;;;5065685;28;20521;-80
2022/05/03 05:20:37;;;;;;;1.43;1.33;;;13.80;1.00;;;;;;5077757;28;20438;-84
2022/05/03 05:23:06;;;;;;;0.60;0.10;;;13.80;1.00;;;;;;5084611;28;20535;-84
2022/05/03 05:25:48;;;;;;;2.10;2.00;;;13.90;1.00;;;;;;5068251;28;20475;-84
2022/05/03 05:28:18;;;;;;;0.83;0.47;;;13.90;1.00;;;;;;5051130;28;20490;-82
2022/05/03 05:30:46;;;;;;;1.67;1.40;;;;;;;;;;5062284;28;20472;-81
2022/05/03 05:33:15;;;;;;;3.23;1.60;;;;;;;;;;5059782;28;20457;-81
2022/05/03 05:35:45;;;;;;;1.07;0.97;;;13.90;1.00;;;;;;5065066;28;20483;-81
2022/05/03 05:38:15;;;;;;;0.73;0.70;;;13.90;1.00;;;;;;5064382;28;20520;-81
2022/05/03 05:40:42;;;;;;;0.80;0.80;;;14.00;1.00;;;;;;5063170;28;20537;-81
2022/05/03 05:43:11;;;;;;;1.43;1.33;;;;;;;;;;5064757;28;20531;-81
2022/05/03 05:45:39;;;;;;;3.07;0.77;;;13.90;1.00;;;;;;5064933;28;20468;-82
2022/05/03 05:48:09;;;;;;;0.60;0.20;;;13.90;1.00;;;;;;5076580;28;20469;-80
2022/05/03 05:50:37;;;;;;;0.60;0.20;;;14.00;1.00;;;;;;5094887;28;20418;-82
2022/05/03 05:55:52;;;;;;;2.20;0.80;;;13.90;1.00;;;;;;5071589;28;20444;-81
2022/05/03 05:58:20;;;;;;;1.13;1.03;;;13.90;1.00;;;;;;5057120;28;20449;-81
2022/05/03 06:00:49;;;;;;;2.97;1.80;;;13.90;1.00;;;;;;5054762;28;20463;-81
2022/05/03 06:03:19;;;;;;;0.60;0.10;;;14.00;1.00;;;;;;5073354;28;20467;-82
2022/05/03 06:05:47;;;;;;;1.10;0.70;;;14.00;1.00;;;;;;5075301;28;20453;-83
2022/05/03 06:08:16;;;;;;;0.60;0.30;;;14.10;1.00;;;;;;5078037;28;20460;-84
2022/05/03 06:10:44;;;;;;;0.60;0.20;;;14.10;1.00;;;;;;5079708;28;20479;-80
2022/05/03 06:13:13;;;;;;;3.17;2.00;;;14.10;1.00;;;;;;5064844;28;20466;-81
2022/05/03 06:15:41;;;;;;;0.70;0.53;;;14.20;1.00;;;;;;5075857;28;20448;-82
2022/05/03 06:18:10;;;;;;;33.27;12.93;;;;;;;;;;5091244;28;20426;-80
2022/05/03 06:20:38;;;;;;;0.60;0.10;;;14.30;1.00;;;;;;5096328;28;20512;-80
2022/05/03 06:23:13;;;;;;;0.93;0.50;;;14.30;1.00;;;;;;5087588;28;20476;-80
2022/05/03 06:25:42;;;;;;;0.70;0.40;;;14.40;1.00;;;;;;5084055;28;20567;-80
2022/05/03 06:28:11;;;;;;;0.60;0.20;;;14.40;1.00;;;;;;5082793;28;20526;-79
2022/05/03 06:30:40;;;;;;;0.90;0.50;;;14.30;1.00;;;;;;5082594;28;20443;-80
2022/05/03 06:33:08;;;;;;;0.60;0.10;;;14.40;1.00;;;;;;5084032;28;20468;-80
2022/05/03 06:35:35;;;;;;;0.60;0.10;;;14.40;1.00;;;;;;5084283;28;20458;-82
2022/05/03 06:38:04;;;;;;;2.47;0.83;;;14.40;1.00;;;;;;5084167;28;20454;-83
2022/05/03 06:40:32;;;;;;;0.60;0.10;;;14.50;1.00;;;;;;5083901;28;20449;-80
2022/05/03 06:43:01;;;;;;;2.13;1.90;;;14.60;1.00;;;;;;5081882;28;20546;-79
2022/05/03 06:45:29;;;;;;;0.80;0.73;;;14.60;1.00;;;;;;5080614;28;20480;-80
2022/05/03 06:47:57;;;;;;;3.73;3.40;;;14.60;1.00;;;;;;5080014;28;20515;-82
2022/05/03 06:50:25;;;;;;;0.73;0.60;;;14.60;1.00;;;;;;5079542;28;20450;-80
2022/05/03 06:52:53;;;;;;;0.80;0.60;;;;;;;;;;5080060;28;20995;-79
2022/05/03 06:55:24;;;;;;;1.67;1.23;;;14.70;1.00;;;;;;5084237;28;20541;-80
2022/05/03 06:57:52;;;;;;;0.80;0.50;;;14.70;1.00;;;;;;5083092;28;20449;-79
2022/05/03 07:00:22;;;;;;;2.63;1.60;;;14.80;1.00;;;;;;5081541;28;20533;-80
2022/05/03 07:02:50;;;;;;;0.60;0.40;;;14.80;1.00;;;;;;5082063;28;20557;-80
2022/05/03 07:05:18;;;;;;;2.57;2.37;;;14.80;1.00;;;;;;5086552;28;20578;-80
2022/05/03 07:07:46;;;;;;;0.90;0.60;;;14.80;1.00;;;;;;5091403;28;20503;-81
2022/05/03 07:10:14;;;;;;;1.27;1.17;;;14.90;1.00;;;;;;5091974;28;20457;-79
2022/05/03 07:12:42;;;;;;;0.70;0.27;;;14.90;1.00;;;;;;5086274;28;20465;-80
2022/05/03 07:15:10;;;;;;;1.37;0.73;;;15.00;1.00;;;;;;5084723;28;20465;-80
2022/05/03 07:23:15;;;;;;;1.73;1.63;;;;;;;;;;5080001;28;20816;-82
2022/05/03 07:25:44;;;;;;;3.23;1.83;;;15.20;99.90;;;;;;5077601;28;20515;-78
2022/05/03 07:28:12;;;;;;;0.70;0.20;;;15.10;99.90;;;;;;5078423;28;20436;-77
2022/05/03 07:30:40;;;;;;;1.17;1.03;;;15.10;99.90;;;;;;5085351;28;20453;-79
2022/05/03 07:33:09;;;;;;;3.13;1.70;;;15.10;99.90;;;;;;5084482;28;20472;-78
2022/05/03 07:35:37;;;;;;;1.20;0.73;;;15.10;99.90;;;;;;5083177;28;20442;-79
2022/05/03 07:38:06;;;;;;;1.47;0.83;;;15.20;99.90;;;;;;5079042;28;20927;-79
2022/05/03 07:40:34;;;;;;;0.60;0.20;;;15.30;99.90;;;;;;5078595;28;20928;-81
2022/05/03 07:43:03;;;;;;;1.00;0.77;;;15.50;99.90;;;;;;5088354;28;20437;-80
2022/05/03 07:45:31;;;;;;;0.60;0.20;;;16.60;99.90;;;;;;5089864;28;20856;-79
2022/05/03 07:48:03;;;;;;;3.80;0.77;;;15.70;99.90;;;;;;5089422;28;20438;-78
2022/05/03 07:50:33;;;;;;;0.60;0.10;;;15.70;99.90;;;;;;5090632;28;20645;-78
2022/05/03 07:53:01;;;;;;;0.70;0.40;;;15.80;99.90;;;;;;5088848;28;20476;-78
2022/05/03 07:55:29;;;;;;;2.07;1.07;;;15.80;99.90;;;;;;5092810;28;20426;-77
2022/05/03 07:57:57;;;;;;;0.70;0.40;;;15.80;99.90;;;;;;5091089;28;20448;-81
2022/05/03 08:00:26;;;;;;;0.70;0.30;;;15.80;99.90;;;;;;5078877;28;20431;-82
2022/05/03 08:02:54;;;;;;;0.87;0.50;;;15.80;99.90;;;;;;5082829;28;20548;-80
2022/05/03 08:05:23;;;;;;;1.50;0.50;;;16.00;99.90;;;;;;5081251;28;20567;-80
2022/05/03 08:07:55;;;;;;;1.53;1.43;;;16.00;99.90;;;;;;5079474;28;20443;-82
2022/05/03 08:10:23;;;;;;;0.60;0.10;;;16.20;99.90;;;;;;5076411;28;20541;-81
2022/05/03 08:12:51;;;;;;;1.27;1.03;;;16.40;99.90;;;;;;5088139;28;20465;-77
2022/05/03 08:15:20;;;;;;;0.83;0.73;;;16.60;99.90;;;;;;5091701;28;20435;-79
2022/05/03 08:17:48;;;;;;;1.60;0.67;;;16.60;99.90;;;;;;5090940;28;20438;-78
2022/05/03 08:20:17;;;;;;;3.07;1.70;;;16.70;99.90;;;;;;5084237;28;20440;-78
2022/05/03 08:22:45;;;;;;;2.10;0.83;;;16.50;99.90;;;;;;5085103;28;20475;-80
2022/05/03 08:25:14;;;;;;;0.70;0.37;;;16.40;99.90;;;;;;5084432;28;20469;-80
2022/05/03 08:27:42;;;;;;;2.20;1.93;;;16.30;99.90;;;;;;5084303;28;20560;-80
2022/05/03 08:30:11;;;;;;;0.60;0.17;;;16.20;99.90;;;;;;5085756;28;20444;-79
2022/05/03 08:32:46;;;;;;;0.60;0.20;;;;;;;;;;5084784;28;20471;-81
2022/05/03 08:35:16;;;;;;;4.23;0.70;;;16.40;99.90;;;;;;5082342;28;20429;-80
2022/05/03 08:43:16;;;;;;;5.60;3.43;;;16.50;99.90;;;;;;5079969;28;20549;-81
2022/05/03 08:45:48;;;;;;;4.43;1.80;;;16.50;99.90;;;;;;5079225;28;21013;-82
2022/05/03 08:48:18;;;;;;;0.90;0.67;;;16.60;99.90;;;;;;5078601;28;20962;-81
2022/05/03 08:50:47;;;;;;;1.57;1.27;;;16.50;99.90;;;;;;5084112;28;20449;-81
2022/05/03 08:53:16;;;;;;;2.00;1.90;;;16.50;99.90;;;;;;5091761;28;20469;-80
2022/05/03 08:55:50;;;;;;;1.20;1.10;;;16.50;99.90;;;;;;5090995;28;20462;-77
2022/05/03 08:58:19;;;;;;;5.70;3.37;;;16.60;99.90;;;;;;5078022;28;20455;-78
2022/05/03 09:00:47;;;;;;;1.50;1.40;;;16.60;99.90;;;;;;5086976;28;20450;-78
2022/05/03 09:03:15;;;;;;;0.60;0.40;;;16.50;99.90;;;;;;5088966;28;20459;-79
2022/05/03 09:05:48;;;;;;;2.30;1.83;;;16.50;99.90;;;;;;5087842;28;20506;-78
2022/05/03 09:08:23;;;;;;;0.60;0.10;;;16.60;99.90;;;;;;5084426;28;20823;-79
2022/05/03 09:10:53;;;;;;;1.73;1.33;;;;;;;;;;5083235;28;20446;-80
2022/05/03 09:13:42;;;;;;;0.60;0.20;;;16.80;99.90;;;;;;5083996;28;20446;-80
2022/05/03 09:16:11;;;;;;;0.83;0.30;;;16.90;99.90;;;;;;5085502;28;20468;-81
2022/05/03 09:18:40;;;;;;;0.60;0.20;;;16.90;99.90;;;;;;5087848;28;20455;-79
2022/05/03 09:24:05;;;;;;;0.60;0.10;;;17.30;99.90;;;;;;5062849;28;20449;-81
2022/05/03 09:26:34;;;;;;;8.33;2.93;;;17.40;99.90;;;;;;5076484;28;20466;-79
2022/05/03 09:29:05;;;;;;;6.97;4.97;;;17.50;99.90;;;;;;5090278;28;20445;-78
2022/05/03 09:31:34;;;;;;;2.53;1.90;;;17.50;99.90;;;;;;5088932;28;20551;-80
2022/05/03 09:34:04;;;;;;;1.20;1.00;;;17.50;99.90;;;;;;5090738;28;20462;-80
2022/05/03 09:36:44;;;;;;;2.00;1.90;;;17.60;99.90;;;;;;5092145;28;20442;-79
2022/05/03 09:39:33;;;;;;;0.60;0.20;;;17.70;99.90;;;;;;5095352;28;20439;-81
2022/05/03 09:42:07;;;;;;;0.67;0.33;;;17.80;99.90;;;;;;5091297;28;20463;-80
2022/05/03 09:44:37;;;;;;;2.53;2.33;;;;;;;;;;5092169;28;20454;-81
2022/05/03 09:47:11;;;;;;;0.60;0.10;;;18.20;99.90;;;;;;5093611;28;20515;-80
2022/05/03 09:49:40;;;;;;;1.23;0.50;;;18.10;99.90;;;;;;5091877;28;20778;-80
2022/05/03 09:52:10;;;;;;;0.60;0.20;;;18.40;99.90;;;;;;5092740;28;20510;-83
2022/05/03 09:54:48;;;;;;;0.80;0.40;;;18.40;99.90;;;;;;5092688;28;20515;-79
2022/05/03 09:57:22;;;;;;;0.60;0.10;;;18.40;99.90;;;;;;5090894;28;20441;-81
2022/05/03 09:59:51;;;;;;;0.70;0.50;;;18.40;99.90;;;;;;5094864;28;20490;-80
2022/05/03 10:02:22;;;;;;;5.07;2.13;;;18.50;99.90;;;;;;5094737;28;20447;-82
2022/05/03 10:04:52;;;;;;;1.73;1.60;;;18.50;99.90;;;;;;5094799;28;20465;-81
2022/05/03 10:07:21;;;;;;;1.90;1.70;;;18.40;99.90;;;;;;5093359;28;20471;-81
2022/05/03 10:09:49;;;;;;;6.80;0.77;;;18.30;99.90;;;;;;5093820;28;21109;-80
2022/05/03 10:12:20;;;;;;;0.73;0.37;;;18.40;99.90;;;;;;5090345;28;20468;-81
2022/05/03 10:14:51;;;;;;;0.80;0.70;;;18.40;99.90;;;;;;5085728;28;20468;-81
2022/05/03 10:20:39;;;;;;;0.80;0.50;;;18.60;99.90;;;;;;5089939;28;20486;-81
2022/05/03 10:23:20;;;;;;;1.73;0.63;;;18.60;99.90;;;;;;5087668;28;20536;-81
2022/05/03 10:25:52;;;;;;;1.97;1.87;;;;;;;;;;5088399;28;20467;-81
2022/05/03 10:28:22;;;;;;;0.70;0.30;;;18.80;99.90;;;;;;5078640;28;20493;-81
2022/05/03 10:31:23;;;;;;;0.60;0.10;;;18.90;99.90;;;;;;5078376;28;20438;-80
2022/05/03 10:33:51;;;;;;;1.37;0.83;;;18.90;99.90;;;;;;4978465;28;20484;-80
2022/05/03 10:36:43;;;;;;;0.90;0.67;;;18.90;99.90;;;;;;4978127;28;20457;-82
2022/05/03 10:39:25;;;;;;;0.80;0.77;;;18.90;99.90;;;;;;5040604;28;20439;-83
2022/05/03 10:41:58;;;;;;;0.70;0.30;;;18.90;99.90;;;;;;5072905;28;20515;-81
2022/05/03 10:44:57;;;;;;;0.80;0.37;;;19.00;99.90;;;;;;5075750;28;20542;-80
2022/05/03 10:47:49;;;;;;;2.00;0.60;;;19.20;99.90;;;;;;5086615;28;20484;-79
2022/05/03 10:50:28;;;;;;;5.80;1.30;;;19.30;99.90;;;;;;5056670;28;20456;-78
2022/05/03 10:53:25;;;;;;;0.70;0.40;;;19.40;99.90;;;;;;5081063;28;20468;-81
2022/05/03 10:56:21;;;;;;;0.70;0.20;;;19.50;99.90;;;;;;5086862;28;20934;-81
2022/05/03 10:59:05;;;;;;;0.70;0.20;;;19.70;99.90;;;;;;5026927;28;20538;-80
2022/05/03 11:02:10;;;;;;;0.63;0.27;;;19.60;99.90;;;;;;5082457;28;20663;-79
2022/05/03 11:05:16;;;;;;;2.00;1.50;;;19.70;99.90;;;;;;5079556;28;20472;-80
2022/05/03 11:08:16;;;;;;;0.70;0.20;;;19.80;99.90;;;;;;5084718;28;20867;-80
2022/05/03 11:10:45;;;;;;;0.67;0.17;;;19.80;99.90;;;;;;5080647;28;20805;-80
2022/05/03 11:13:37;;;;;;;0.90;0.70;;;19.90;99.90;;;;;;5080152;28;20544;-81
2022/05/03 11:16:26;;;;;;;0.60;0.20;;;19.90;99.90;;;;;;5077922;28;20525;-80
2022/05/03 11:18:56;;;;;;;1.13;0.63;;;19.90;99.90;;;;;;5079164;28;20553;-79
2022/05/03 11:21:24;;;;;;;0.90;0.77;;;20.10;99.90;;;;;;5087564;28;20464;-81
2022/05/03 11:23:53;;;;;;;0.70;0.40;;;20.00;99.90;;;;;;5088491;28;20551;-81
2022/05/03 11:26:24;;;;;;;1.63;1.53;;;20.10;99.90;;;;;;5079198;28;20476;-79
2022/05/03 11:28:53;;;;;;;0.80;0.70;;;19.90;99.90;;;;;;5081540;28;21045;-80
2022/05/03 11:31:22;;;;;;;0.70;0.20;;;20.00;99.90;;;;;;5085004;28;20810;-79
2022/05/03 11:33:55;;;;;;;0.70;0.20;;;20.10;99.90;;;;;;5087159;28;20433;-80
2022/05/03 11:36:24;;;;;;;0.90;0.40;;;20.10;99.90;;;;;;5085293;28;20418;-80
2022/05/03 11:38:54;;;;;;;5.33;1.17;;;20.20;99.90;;;;;;5080497;28;20451;-81
2022/05/03 11:41:23;;;;;;;1.30;0.47;;;20.20;99.90;;;;;;5079685;28;20469;-82
2022/05/03 11:43:51;;;;;;;0.70;0.20;;;20.20;99.90;;;;;;5079307;28;20488;-81
2022/05/03 11:46:21;;;;;;;0.70;0.20;;;20.40;99.90;;;;;;5078915;28;20456;-79
2022/05/03 11:48:53;;;;;;;1.20;0.50;;;20.40;99.90;;;;;;5077235;28;20441;-80
2022/05/03 11:57:11;;;;;;;0.70;0.20;;;24.00;99.90;;;;;;5074573;28;20433;-80
2022/05/03 11:59:40;;;;;;;1.40;1.03;;;20.50;99.90;;;;;;5078064;28;20451;-80
2022/05/03 12:02:18;;;;;;;2.57;2.03;;;20.70;99.90;;;;;;5083603;28;20438;-79
2022/05/03 12:05:16;;;;;;;1.27;0.67;;;20.70;99.90;;;;;;5093052;28;20515;-80
2022/05/03 12:07:46;;;;;;;0.80;0.80;;;20.70;99.90;;;;;;5089135;28;20511;-79
2022/05/03 12:10:20;;;;;;;0.70;0.20;;;20.70;99.90;;;;;;5092258;28;20465;-79
2022/05/03 12:13:03;;;;;;;2.67;1.90;;;20.70;99.90;;;;;;5080312;28;20456;-81
2022/05/03 12:15:31;;;;;;;0.77;0.30;;;20.80;99.90;;;;;;5079843;28;20452;-80
2022/05/03 12:18:02;;;;;;;1.67;1.57;;;20.70;99.90;;;;;;5078587;28;21010;-80
2022/05/03 12:20:42;;;;;;;1.20;0.83;;;20.80;99.90;;;;;;5079385;28;20487;-80
2022/05/03 12:23:18;;;;;;;0.80;0.77;;;20.70;99.90;;;;;;5084371;28;20475;-79
2022/05/03 12:25:50;;;;;;;0.90;0.70;;;20.60;99.90;;;;;;5095312;28;20509;-78
2022/05/03 12:28:38;;;;;;;0.70;0.20;;;20.90;99.90;;;;;;5094159;28;20472;-79
2022/05/03 12:31:08;;;;;;;0.70;0.10;;;21.00;99.90;;;;;;5082242;28;20444;-79
2022/05/03 12:33:42;;;;;;;7.73;2.33;;;21.00;99.90;;;;;;5068464;28;20431;-80
2022/05/03 12:36:10;;;;;;;0.80;0.50;;;21.00;99.90;;;;;;5089989;28;20444;-80
2022/05/03 12:38:48;;;;;;;0.93;0.83;;;21.00;99.90;;;;;;5092965;28;20449;-80
2022/05/03 12:41:29;;;;;;;0.70;0.20;;;21.20;99.90;;;;;;5095339;28;20513;-78
2022/05/03 12:44:01;;;;;;;1.37;1.00;;;21.30;99.90;;;;;;5093779;28;20444;-79
2022/05/03 12:46:29;;;;;;;1.63;0.63;;;21.30;99.90;;;;;;5086869;28;20454;-81
2022/05/03 12:48:58;;;;;;;0.93;0.83;;;21.30;99.90;;;;;;5080009;28;20447;-79
2022/05/03 12:51:26;;;;;;;1.20;0.97;;;21.30;99.90;;;;;;5077165;28;20468;-80
2022/05/03 12:53:54;;;;;;;1.00;0.70;;;21.40;99.90;;;;;;5078534;28;20444;-80
2022/05/03 12:59:23;;;;;;;1.80;1.67;;;21.40;99.90;;;;;;5018744;28;20443;-80
2022/05/03 13:01:53;;;;;;;0.70;0.20;;;21.20;99.90;;;;;;5025805;28;20471;-79
2022/05/03 13:04:21;;;;;;;0.80;0.40;;;21.20;99.90;;;;;;5053583;28;20459;-81
2022/05/03 13:06:52;;;;;;;0.80;0.60;;;21.20;99.90;;;;;;5080077;28;20446;-80
2022/05/03 13:09:20;;;;;;;1.50;1.40;;;21.30;99.90;;;;;;5080665;28;22649;-80
2022/05/03 13:11:55;;;;;;;0.70;0.23;;;21.40;99.90;;;;;;5083040;28;20460;-80
2022/05/03 13:14:26;;;;;;;1.43;0.97;;;21.40;99.90;;;;;;5083584;28;20481;-81
2022/05/03 13:16:54;;;;;;;3.13;1.20;;;21.40;99.90;;;;;;5083484;28;20443;-78
2022/05/03 13:19:23;;;;;;;3.03;2.83;;;21.50;99.90;;;;;;5085538;28;20456;-82
2022/05/03 13:21:53;;;;;;;0.93;0.60;;;21.60;99.90;;;;;;5083912;28;20526;-81
2022/05/03 13:24:21;;;;;;;2.40;2.00;;;21.60;99.90;;;;;;5085170;28;20540;-81
2022/05/03 13:26:50;;;;;;;2.30;1.10;;;21.60;99.90;;;;;;5086652;28;20532;-81
2022/05/03 13:29:20;;;;;;;0.70;0.10;;;21.80;99.90;;;;;;5089364;28;20448;-80
2022/05/03 13:31:50;;;;;;;1.93;1.37;;;21.80;99.90;;;;;;5088177;28;20478;-79
2022/05/03 13:34:18;;;;;;;1.00;0.80;;;21.70;99.90;;;;;;5087158;28;20468;-82
2022/05/03 13:42:18;;;;;;;2.23;1.07;;;21.80;99.90;;;;;;5092214;28;20469;-81
2022/05/03 13:44:46;;;;;;;0.90;0.70;;;21.70;99.90;;;;;;5092880;28;20489;-80
2022/05/03 13:47:15;;;;;;;1.00;0.60;;;21.80;99.90;;;;;;5089698;28;20553;-79
2022/05/03 13:49:43;;;;;;;0.90;0.30;;;21.80;99.90;;;;;;5089782;28;20450;-78
2022/05/03 13:52:11;;;;;;;1.07;0.97;;;22.00;99.90;;;;;;5084427;28;20465;-79
2022/05/03 13:54:39;;;;;;;0.70;0.20;;;22.00;99.90;;;;;;5093442;28;20504;-78
2022/05/03 13:57:08;;;;;;;2.40;0.57;;;21.90;99.90;;;;;;5094258;28;20513;-81
2022/05/03 13:59:36;;;;;;;0.70;0.20;;;21.80;99.90;;;;;;5094594;28;20441;-80
2022/05/03 14:02:07;;;;;;;0.70;0.30;;;21.80;99.90;;;;;;5092960;28;20488;-79
2022/05/03 14:04:38;;;;;;;0.80;0.30;;;21.80;99.90;;;;;;5092211;28;20467;-81
2022/05/03 14:07:07;;;;;;;0.70;0.30;;;21.70;99.90;;;;;;5081705;28;20444;-80